createdAt,value
2018-10-07T00:01:14.446Z,17.33
2018-10-07T00:03:44.423Z,19.33
2018-10-07T00:06:14.483Z,20.33
2018-10-07T00:08:44.074Z,18.67
2018-10-07T00:11:14.291Z,15.67
2018-10-07T00:13:44.845Z,18.33
2018-10-07T00:16:16.237Z,17.67
2018-10-07T00:18:46.488Z,19.33
2018-10-07T00:21:16.179Z,20.67
2018-10-07T00:23:45.770Z,15.00
2018-10-07T00:26:16.221Z,17.33
2018-10-07T00:28:46.827Z,17.33
2018-10-07T00:31:16.954Z,12.00
2018-10-07T00:33:46.618Z,19.67
2018-10-07T00:36:16.343Z,15.67
2018-10-07T00:38:47.259Z,15.33
2018-10-07T00:41:16.827Z,14.67
2018-10-07T00:43:46.480Z,15.33
2018-10-07T00:46:16.556Z,14.00
2018-10-07T00:48:46.013Z,15.33
2018-10-07T00:51:16.171Z,18.00
2018-10-07T00:53:52.559Z,15.00
2018-10-07T00:56:24.072Z,19.00
2018-10-07T00:58:55.088Z,21.67
2018-10-07T01:01:24.696Z,22.33
2018-10-07T01:03:55.945Z,18.00
2018-10-07T01:06:27.010Z,20.67
2018-10-07T01:08:57.193Z,15.67
2018-10-07T01:11:29.328Z,19.00
2018-10-07T01:14:01.778Z,20.00
2018-10-07T01:16:31.368Z,21.67
2018-10-07T01:19:02.053Z,23.67
2018-10-07T01:21:42.885Z,23.67
2018-10-07T01:24:14.478Z,25.33
2018-10-07T01:26:45.034Z,27.00
2018-10-07T01:29:19.997Z,26.00
2018-10-07T01:31:49.552Z,26.33
2018-10-07T01:34:19.790Z,22.00
2018-10-07T01:36:49.506Z,20.33
2018-10-07T01:39:19.997Z,21.33
2018-10-07T01:41:51.880Z,21.67
2018-10-07T01:44:22.222Z,23.67
2018-10-07T01:46:52.807Z,25.00
2018-10-07T01:49:24.292Z,24.67
2018-10-07T01:51:54.361Z,26.33
2018-10-07T01:54:26.233Z,28.33
2018-10-07T01:56:55.781Z,29.33
2018-10-07T01:59:28.527Z,22.33
2018-10-07T02:02:00.883Z,25.67
2018-10-07T02:04:33.717Z,26.67
2018-10-07T02:07:05.473Z,29.00
2018-10-07T02:09:35.027Z,29.67
2018-10-07T02:12:06.006Z,28.67
2018-10-07T02:14:35.646Z,27.33
2018-10-07T02:17:05.340Z,28.00
2018-10-07T02:19:56.365Z,28.00
2018-10-07T02:22:26.847Z,25.33
2018-10-07T02:24:58.836Z,25.33
2018-10-07T02:27:29.567Z,24.00
2018-10-07T02:30:00.228Z,25.00
2018-10-07T02:32:29.862Z,28.00
2018-10-07T02:35:01.451Z,25.67
2018-10-07T02:37:32.221Z,22.67
2018-10-07T02:40:01.718Z,23.00
2018-10-07T02:42:31.572Z,23.33
2018-10-07T02:45:02.102Z,22.33
2018-10-07T02:47:31.582Z,21.67
2018-10-07T02:50:06.545Z,20.33
2018-10-07T02:52:41.178Z,20.67
2018-10-07T02:55:10.745Z,24.67
2018-10-07T02:57:40.828Z,23.00
2018-10-07T03:00:14.461Z,25.33
2018-10-07T03:02:45.048Z,20.33
2018-10-07T03:05:16.454Z,20.00
2018-10-07T03:07:47.912Z,23.67
2018-10-07T03:10:18.177Z,25.33
2018-10-07T03:12:47.984Z,24.67
2018-10-07T03:15:23.740Z,24.67
2018-10-07T03:17:54.736Z,23.33
2018-10-07T03:20:29.043Z,28.67
2018-10-07T03:22:59.781Z,27.00
2018-10-07T03:25:30.091Z,28.00
2018-10-07T03:28:00.879Z,24.67
2018-10-07T03:30:37.460Z,21.67
2018-10-07T03:33:08.286Z,26.00
2018-10-07T03:35:38.985Z,29.00
2018-10-07T03:38:10.382Z,24.00
2018-10-07T03:40:41.850Z,28.00
2018-10-07T03:43:12.607Z,25.33
2018-10-07T03:45:42.803Z,26.67
2018-10-07T03:48:13.105Z,26.00
2018-10-07T03:50:45.185Z,26.00
2018-10-07T03:53:15.652Z,23.00
2018-10-07T03:55:50.537Z,26.00
2018-10-07T03:58:23.836Z,26.67
2018-10-07T04:03:30.057Z,23.25
2018-10-07T04:05:59.865Z,24.67
2018-10-07T04:08:29.433Z,27.00
2018-10-07T04:10:58.980Z,25.33
2018-10-07T04:13:30.099Z,24.67
2018-10-07T04:16:00.672Z,24.67
2018-10-07T04:18:30.314Z,25.67
2018-10-07T04:20:59.884Z,26.00
2018-10-07T04:23:33.144Z,28.00
2018-10-07T04:26:03.892Z,30.67
2018-10-07T04:28:33.700Z,26.67
2018-10-07T04:31:03.264Z,30.33
2018-10-07T04:33:33.289Z,33.67
2018-10-07T04:36:02.790Z,33.33
2018-10-07T04:38:33.585Z,29.67
2018-10-07T04:41:05.584Z,31.00
2018-10-07T04:43:35.230Z,26.67
2018-10-07T04:46:07.832Z,30.00
2018-10-07T04:48:39.790Z,27.67
2018-10-07T04:51:10.881Z,28.00
2018-10-07T04:53:41.520Z,31.67
2018-10-07T04:56:11.335Z,35.67
2018-10-07T04:58:40.882Z,26.67
2018-10-07T05:01:12.262Z,31.00
2018-10-07T05:03:41.759Z,27.00
2018-10-07T05:06:12.214Z,34.67
2018-10-07T05:08:43.190Z,30.00
2018-10-07T05:11:19.598Z,30.67
2018-10-07T05:13:53.242Z,30.00
2018-10-07T05:16:39.278Z,27.33
2018-10-07T05:19:10.180Z,29.00
2018-10-07T05:21:40.753Z,25.00
2018-10-07T05:24:13.354Z,31.33
2018-10-07T05:26:43.392Z,28.67
2018-10-07T05:29:13.036Z,27.00
2018-10-07T05:31:42.562Z,28.00
2018-10-07T05:34:13.629Z,27.33
2018-10-07T05:36:45.095Z,30.67
2018-10-07T05:39:16.431Z,30.00
2018-10-07T05:41:45.977Z,33.00
2018-10-07T05:44:15.552Z,29.00
2018-10-07T05:46:46.395Z,28.00
2018-10-07T05:49:15.955Z,30.33
2018-10-07T05:51:47.745Z,31.33
2018-10-07T05:54:25.613Z,27.67
2018-10-07T05:56:56.020Z,27.67
2018-10-07T05:59:25.700Z,29.00
2018-10-07T06:01:57.794Z,32.67
2018-10-07T06:04:36.536Z,29.67
2018-10-07T06:07:06.125Z,25.00
2018-10-07T06:09:36.924Z,24.33
2018-10-07T06:12:07.575Z,26.00
2018-10-07T06:14:48.377Z,25.33
2018-10-07T06:17:19.507Z,27.33
2018-10-07T06:19:51.810Z,29.00
2018-10-07T06:22:23.741Z,33.67
2018-10-07T06:24:59.100Z,32.67
2018-10-07T06:27:33.065Z,37.00
2018-10-07T06:30:03.940Z,40.50
2018-10-07T06:32:33.490Z,36.67
2018-10-07T06:35:03.055Z,38.33
2018-10-07T06:37:32.675Z,38.33
2018-10-07T06:40:03.959Z,43.00
2018-10-07T06:45:13.167Z,47.75
2018-10-07T06:47:45.328Z,39.33
2018-10-07T06:50:16.219Z,43.50
2018-10-07T06:52:49.517Z,37.00
2018-10-07T06:55:22.672Z,41.00
2018-10-07T06:57:52.860Z,41.00
2018-10-07T07:00:24.377Z,43.00
2018-10-07T07:02:56.247Z,47.33
2018-10-07T07:05:30.108Z,44.00
2018-10-07T07:08:04.443Z,43.33
2018-10-07T07:10:35.402Z,42.67
2018-10-07T07:13:05.901Z,54.25
2018-10-07T07:15:35.625Z,48.67
2018-10-07T07:18:05.621Z,42.00
2018-10-07T07:20:35.923Z,45.00
2018-10-07T07:23:05.620Z,50.00
2018-10-07T07:25:38.075Z,44.33
2018-10-07T07:28:08.728Z,45.33
2018-10-07T07:30:38.983Z,50.00
2018-10-07T07:33:09.651Z,48.00
2018-10-07T07:35:39.283Z,45.33
2018-10-07T07:38:10.349Z,51.00
2018-10-07T07:40:40.317Z,52.33
2018-10-07T07:43:10.969Z,47.33
2018-10-07T07:45:41.370Z,54.00
2018-10-07T07:48:11.421Z,55.00
2018-10-07T07:50:41.891Z,56.33
2018-10-07T07:53:13.985Z,53.33
2018-10-07T07:55:44.923Z,50.33
2018-10-07T07:58:14.766Z,49.67
2018-10-07T08:00:44.504Z,48.67
2018-10-07T08:03:14.745Z,50.67
2018-10-07T08:05:46.822Z,49.33
2018-10-07T08:08:17.341Z,57.50
2018-10-07T08:10:47.413Z,50.00
2018-10-07T08:13:17.186Z,52.67
2018-10-07T08:15:47.645Z,50.33
2018-10-07T08:18:18.083Z,54.00
2018-10-07T08:20:48.100Z,50.67
2018-10-07T08:23:22.168Z,53.33
2018-10-07T08:25:52.701Z,43.75
2018-10-07T08:28:22.447Z,47.00
2018-10-07T08:30:52.420Z,57.00
2018-10-07T08:33:26.172Z,50.00
2018-10-07T08:35:57.357Z,55.00
2018-10-07T08:38:32.523Z,51.00
2018-10-07T08:41:07.375Z,58.00
2018-10-07T08:43:43.772Z,48.67
2018-10-07T08:46:13.390Z,52.33
2018-10-07T08:48:43.609Z,52.00
2018-10-07T08:51:20.572Z,55.33
2018-10-07T08:53:52.472Z,52.00
2018-10-07T08:56:22.097Z,52.67
2018-10-07T08:58:51.980Z,56.00
2018-10-07T09:01:22.203Z,58.00
2018-10-07T09:03:53.181Z,61.67
2018-10-07T09:06:28.470Z,57.00
2018-10-07T09:08:59.365Z,56.00
2018-10-07T09:11:30.424Z,60.33
2018-10-07T09:14:03.883Z,58.00
2018-10-07T09:16:33.739Z,62.67
2018-10-07T09:19:04.959Z,39.67
2018-10-07T09:21:35.651Z,57.00
2018-10-07T09:24:09.105Z,57.00
2018-10-07T09:26:38.815Z,60.67
2018-10-07T09:29:08.835Z,61.33
2018-10-07T09:31:38.539Z,53.33
2018-10-07T09:34:08.487Z,61.67
2018-10-07T09:36:39.266Z,54.75
2018-10-07T09:39:11.776Z,62.33
2018-10-07T09:41:42.509Z,59.67
2018-10-07T09:44:12.255Z,53.00
2018-10-07T09:46:43.755Z,48.00
2018-10-07T09:49:15.615Z,52.00
2018-10-07T09:51:45.274Z,64.00
2018-10-07T09:54:15.078Z,54.00
2018-10-07T09:56:45.817Z,54.67
2018-10-07T09:59:16.325Z,59.33
2018-10-07T10:01:47.435Z,56.33
2018-10-07T10:04:21.885Z,57.00
2018-10-07T10:06:52.728Z,54.67
2018-10-07T10:09:25.215Z,53.67
2018-10-07T10:11:55.273Z,55.00
2018-10-07T10:14:25.466Z,63.33
2018-10-07T10:16:58.871Z,58.00
2018-10-07T10:19:51.523Z,55.00
2018-10-07T10:22:34.760Z,48.33
2018-10-07T10:25:09.435Z,59.00
2018-10-07T10:27:46.077Z,54.67
2018-10-07T10:30:26.552Z,45.33
2018-10-07T10:33:09.210Z,51.33
2018-10-07T10:35:59.460Z,53.67
2018-10-07T10:38:39.917Z,57.00
2018-10-07T10:41:17.988Z,49.00
2018-10-07T10:43:58.073Z,47.33
2018-10-07T10:46:54.846Z,49.33
2018-10-07T10:50:34.509Z,44.00
2018-10-07T10:53:29.485Z,52.67
2018-10-07T10:56:10.861Z,47.00
2018-10-07T11:01:46.311Z,51.00
2018-10-07T11:04:22.279Z,45.00
2018-10-07T11:09:08.536Z,42.75
2018-10-07T11:11:59.751Z,43.67
2018-10-07T11:16:43.337Z,33.00
2018-10-07T11:20:23.739Z,35.33
2018-10-07T11:23:18.229Z,29.00
2018-10-07T11:25:58.868Z,24.00
2018-10-07T11:30:40.609Z,23.00
2018-10-07T11:33:23.889Z,25.00
2018-10-07T11:38:43.907Z,20.00
2018-10-07T11:41:37.508Z,17.33
2018-10-07T11:44:21.405Z,22.67
2018-10-07T11:49:08.191Z,18.67
2018-10-07T11:53:47.287Z,19.00
2018-10-07T11:56:17.561Z,15.33
2018-10-07T11:58:47.642Z,16.67
2018-10-07T12:01:19.507Z,14.00
2018-10-07T12:03:53.834Z,14.00
2018-10-07T12:06:25.225Z,15.33
2018-10-07T12:08:55.585Z,13.33
2018-10-07T12:11:29.026Z,14.00
2018-10-07T12:14:01.879Z,15.67
2018-10-07T12:16:32.584Z,14.00
2018-10-07T12:19:04.646Z,14.33
2018-10-07T12:21:36.374Z,15.00
2018-10-07T12:24:06.866Z,13.00
2018-10-07T12:26:41.438Z,10.33
2018-10-07T12:29:12.051Z,13.00
2018-10-07T12:31:43.849Z,14.00
2018-10-07T12:34:18.343Z,11.50
2018-10-07T12:36:49.530Z,10.33
2018-10-07T12:39:24.894Z,11.50
2018-10-07T12:41:57.396Z,11.25
2018-10-07T12:44:27.942Z,10.00
2018-10-07T12:47:02.018Z,10.33
2018-10-07T12:49:38.867Z,11.00
2018-10-07T12:52:10.593Z,15.00
2018-10-07T12:54:41.381Z,11.00
2018-10-07T12:57:11.863Z,14.67
2018-10-07T12:59:43.836Z,10.33
2018-10-07T13:02:13.985Z,10.33
2018-10-07T13:04:46.927Z,12.75
2018-10-07T13:07:19.746Z,13.67
2018-10-07T13:09:51.187Z,14.00
2018-10-07T13:12:20.843Z,16.33
2018-10-07T13:14:51.152Z,13.00
2018-10-07T13:17:21.372Z,12.00
2018-10-07T13:19:53.594Z,13.00
2018-10-07T13:22:26.644Z,12.75
2018-10-07T13:24:57.098Z,16.00
2018-10-07T13:27:29.293Z,15.67
2018-10-07T13:30:00.675Z,13.67
2018-10-07T13:32:34.562Z,11.00
2018-10-07T13:35:07.605Z,13.00
2018-10-07T13:37:38.374Z,16.00
2018-10-07T13:40:09.255Z,12.00
2018-10-07T13:42:43.363Z,12.00
2018-10-07T13:45:16.274Z,15.00
2018-10-07T13:47:47.585Z,15.00
2018-10-07T13:50:19.317Z,15.00
2018-10-07T13:52:51.876Z,14.67
2018-10-07T13:55:21.501Z,15.00
2018-10-07T13:57:52.857Z,14.33
2018-10-07T14:00:27.230Z,18.00
2018-10-07T14:03:01.175Z,17.67
2018-10-07T14:05:40.076Z,15.00
2018-10-07T14:08:10.791Z,15.67
2018-10-07T14:10:43.119Z,17.33
2018-10-07T14:13:13.187Z,19.67
2018-10-07T14:15:43.830Z,14.33
2018-10-07T14:18:14.696Z,17.67
2018-10-07T14:20:47.433Z,14.00
2018-10-07T14:23:17.773Z,15.33
2018-10-07T14:25:49.144Z,16.33
2018-10-07T14:28:21.482Z,17.00
2018-10-07T14:30:53.541Z,17.00
2018-10-07T14:33:25.028Z,15.00
2018-10-07T14:35:57.680Z,14.67
2018-10-07T14:38:29.334Z,15.67
2018-10-07T14:41:00.199Z,14.67
2018-10-07T14:43:31.429Z,15.33
2018-10-07T14:46:01.875Z,17.00
2018-10-07T14:48:33.585Z,15.33
2018-10-07T14:51:06.024Z,13.67
2018-10-07T14:54:00.483Z,12.33
2018-10-07T14:56:31.061Z,15.00
2018-10-07T14:59:06.601Z,12.33
2018-10-07T15:01:37.955Z,11.00
2018-10-07T15:04:08.705Z,12.33
2018-10-07T15:06:41.051Z,11.00
2018-10-07T15:09:12.475Z,16.33
2018-10-07T15:11:43.245Z,12.33
2018-10-07T15:14:15.622Z,18.00
2018-10-07T15:16:47.679Z,11.33
2018-10-07T15:19:19.122Z,12.00
2018-10-07T15:21:50.668Z,13.33
2018-10-07T15:24:21.225Z,12.00
2018-10-07T15:26:52.667Z,13.00
2018-10-07T15:29:24.247Z,11.00
2018-10-07T15:31:55.953Z,11.80
2018-10-07T15:34:26.923Z,11.67
2018-10-07T15:36:57.651Z,8.00
2018-10-07T15:39:29.162Z,9.00
2018-10-07T15:42:00.944Z,11.40
2018-10-07T15:44:34.126Z,9.33
2018-10-07T15:47:07.747Z,8.80
2018-10-07T15:49:40.637Z,8.40
2018-10-07T15:52:12.156Z,8.60
2018-10-07T15:54:44.524Z,7.33
2018-10-07T15:57:17.241Z,9.80
2018-10-07T15:59:51.790Z,8.80
2018-10-07T16:02:24.489Z,6.80
2018-10-07T16:04:57.585Z,6.00
2018-10-07T16:07:30.469Z,7.60
2018-10-07T16:10:02.851Z,6.40
2018-10-07T16:12:35.345Z,7.00
2018-10-07T16:15:08.726Z,8.00
2018-10-07T16:17:40.911Z,7.00
2018-10-07T16:20:15.220Z,7.00
2018-10-07T16:23:04.479Z,5.00
2018-10-07T16:25:39.578Z,6.40
2018-10-07T16:28:16.036Z,5.40
2018-10-07T16:30:47.702Z,7.00
2018-10-07T16:33:20.890Z,5.80
2018-10-07T16:36:08.525Z,7.60
2018-10-07T16:38:41.193Z,8.40
2018-10-07T16:41:15.237Z,7.00
2018-10-07T16:43:46.644Z,7.80
2018-10-07T16:46:19.282Z,8.40
2018-10-07T16:48:51.375Z,5.40
2018-10-07T16:51:24.238Z,7.60
2018-10-07T16:53:58.456Z,5.80
2018-10-07T16:56:32.361Z,5.00
2018-10-07T16:59:08.830Z,7.00
2018-10-07T17:01:40.405Z,4.40
2018-10-07T17:04:11.975Z,5.20
2018-10-07T17:06:45.197Z,5.00
2018-10-07T17:09:16.902Z,4.00
2018-10-07T17:11:48.476Z,7.00
2018-10-07T17:14:20.552Z,5.00
2018-10-07T17:16:54.456Z,5.80
2018-10-07T17:19:27.285Z,5.80
2018-10-07T17:22:00.601Z,5.40
2018-10-07T17:24:36.814Z,6.00
2018-10-07T17:27:11.265Z,5.80
2018-10-07T17:29:45.085Z,5.00
2018-10-07T17:32:17.441Z,4.00
2018-10-07T17:34:49.953Z,6.60
2018-10-07T17:37:21.682Z,6.00
2018-10-07T17:39:54.017Z,5.20
2018-10-07T17:42:27.520Z,5.40
2018-10-07T17:45:00.129Z,6.00
2018-10-07T17:47:33.205Z,5.40
2018-10-07T17:50:07.410Z,5.40
2018-10-07T17:52:42.338Z,4.00
2018-10-07T17:55:15.285Z,4.00
2018-10-07T17:57:49.557Z,4.20
2018-10-07T18:00:23.081Z,5.40
2018-10-07T18:02:55.364Z,6.00
2018-10-07T18:05:28.693Z,4.40
2018-10-07T18:08:01.385Z,3.80
2018-10-07T18:10:33.921Z,4.80
2018-10-07T18:13:15.816Z,5.20
2018-10-07T18:15:56.934Z,6.00
2018-10-07T18:18:30.026Z,6.00
2018-10-07T18:21:02.709Z,6.00
2018-10-07T18:23:34.933Z,7.80
2018-10-07T18:26:08.509Z,7.40
2018-10-07T18:28:41.260Z,7.00
2018-10-07T18:31:16.022Z,9.67
2018-10-07T18:33:49.432Z,6.80
2018-10-07T18:36:21.393Z,7.00
2018-10-07T18:38:54.587Z,10.00
2018-10-07T18:41:27.394Z,8.20
2018-10-07T18:44:00.394Z,6.60
2018-10-07T18:46:34.104Z,9.00
2018-10-07T18:49:09.999Z,8.33
2018-10-07T18:51:41.135Z,9.33
2018-10-07T18:54:11.761Z,10.00
2018-10-07T18:56:42.512Z,9.67
2018-10-07T18:59:13.202Z,13.67
2018-10-07T19:01:45.208Z,11.50
2018-10-07T19:04:17.705Z,10.00
2018-10-07T19:06:51.845Z,10.67
2018-10-07T19:09:24.318Z,9.00
2018-10-07T19:11:58.406Z,12.00
2018-10-07T19:14:31.270Z,12.00
2018-10-07T19:17:04.400Z,14.50
2018-10-07T19:19:39.011Z,9.80
2018-10-07T19:22:11.641Z,10.00
2018-10-07T19:24:42.738Z,12.00
2018-10-07T19:27:14.514Z,9.33
2018-10-07T19:29:49.266Z,10.00
2018-10-07T19:32:21.415Z,9.67
2018-10-07T19:34:55.031Z,13.33
2018-10-07T19:37:27.736Z,12.00
2018-10-07T19:39:59.605Z,13.67
2018-10-07T19:42:35.396Z,13.00
2018-10-07T19:45:13.464Z,12.00
2018-10-07T19:47:44.355Z,12.67
2018-10-07T19:50:17.276Z,12.50
2018-10-07T19:52:48.375Z,9.00
2018-10-07T19:55:19.604Z,12.00
2018-10-07T19:57:50.386Z,12.67
2018-10-07T20:00:24.692Z,12.25
2018-10-07T20:02:57.109Z,10.33
2018-10-07T20:05:30.558Z,11.67
2018-10-07T20:08:02.630Z,11.33
2018-10-07T20:10:35.193Z,16.25
2018-10-07T20:13:07.302Z,14.00
2018-10-07T20:18:44.690Z,11.33
2018-10-07T20:21:17.368Z,12.00
2018-10-07T20:23:48.486Z,13.00
2018-10-07T20:26:26.855Z,9.33
2018-10-07T20:29:00.612Z,12.00
2018-10-07T20:31:31.773Z,10.33
2018-10-07T20:34:02.565Z,9.33
2018-10-07T20:36:33.927Z,10.33
2018-10-07T20:39:06.012Z,12.67
2018-10-07T20:41:36.794Z,12.00
2018-10-07T20:44:08.332Z,14.00
2018-10-07T20:46:41.016Z,9.00
2018-10-07T20:49:13.439Z,11.50
2018-10-07T20:51:45.735Z,9.00
2018-10-07T20:54:18.340Z,10.60
2018-10-07T20:56:49.711Z,11.33
2018-10-07T20:59:28.334Z,10.33
2018-10-07T21:02:01.198Z,10.00
2018-10-07T21:04:34.311Z,9.00
2018-10-07T21:07:08.329Z,10.33
2018-10-07T21:09:41.492Z,10.00
2018-10-07T21:12:12.105Z,10.00
2018-10-07T21:14:43.428Z,12.00
2018-10-07T21:17:16.816Z,10.33
2018-10-07T21:19:48.152Z,11.33
2018-10-07T21:22:22.917Z,15.67
2018-10-07T21:24:54.352Z,10.33
2018-10-07T21:27:24.979Z,10.33
2018-10-07T21:29:56.609Z,12.00
2018-10-07T21:32:28.011Z,12.00
2018-10-07T21:34:59.977Z,9.80
2018-10-07T21:37:29.603Z,14.00
2018-10-07T21:40:02.583Z,11.00
2018-10-07T21:42:33.025Z,12.00
2018-10-07T21:45:06.667Z,12.25
2018-10-07T21:47:47.478Z,10.67
2018-10-07T21:50:20.239Z,10.33
2018-10-07T21:52:52.938Z,11.67
2018-10-07T21:55:24.334Z,12.75
2018-10-07T21:57:55.206Z,12.00
2018-10-07T22:00:26.453Z,12.00
2018-10-07T22:03:00.069Z,11.67
2018-10-07T22:05:32.073Z,12.00
2018-10-07T22:08:05.758Z,13.33
2018-10-07T22:10:38.152Z,13.33
2018-10-07T22:13:09.363Z,12.33
2018-10-07T22:15:44.596Z,11.67
2018-10-07T22:18:17.910Z,12.50
2018-10-07T22:20:48.454Z,17.00
2018-10-07T22:23:19.722Z,11.00
2018-10-07T22:25:50.509Z,14.67
2018-10-07T22:28:21.097Z,9.00
2018-10-07T22:30:56.276Z,13.25
2018-10-07T22:33:27.637Z,14.00
2018-10-07T22:35:59.279Z,14.67
2018-10-07T22:38:33.590Z,11.33
2018-10-07T22:41:05.327Z,14.75
2018-10-07T22:43:38.294Z,9.67
2018-10-07T22:46:10.103Z,9.00
2018-10-07T22:48:42.137Z,11.67
2018-10-07T22:51:12.348Z,16.67
2018-10-07T22:53:44.297Z,12.00
2018-10-07T22:56:15.425Z,13.33
2018-10-07T22:58:47.640Z,13.33
2018-10-07T23:01:18.803Z,13.00
2018-10-07T23:03:49.675Z,10.67
2018-10-07T23:06:22.418Z,11.50
2018-10-07T23:08:54.548Z,12.67
2018-10-07T23:11:27.101Z,12.00
2018-10-07T23:13:59.094Z,14.75
2018-10-07T23:16:30.114Z,12.00
2018-10-07T23:19:01.969Z,11.67
2018-10-07T23:21:33.311Z,12.00
2018-10-07T23:24:05.878Z,16.00
2018-10-07T23:26:37.075Z,14.00
2018-10-07T23:29:07.533Z,13.00
2018-10-07T23:31:39.059Z,15.33
2018-10-07T23:34:10.929Z,15.00
2018-10-07T23:36:42.807Z,12.00
2018-10-07T23:39:17.255Z,10.67
2018-10-07T23:41:47.860Z,15.00
2018-10-07T23:44:17.615Z,15.00
2018-10-07T23:46:48.451Z,12.00
2018-10-07T23:49:19.548Z,13.33
2018-10-07T23:51:53.577Z,14.33
2018-10-07T23:54:25.822Z,13.33
2018-10-07T23:56:56.399Z,11.67
2018-10-07T23:59:34.576Z,13.33
